sensor_id;sensor_type;location;lat;lon;timestamp;temperature;humidity
38726;DHT22;24474;48.906;8.808;2022-07-24T00:01:32;21.70;99.90
38726;DHT22;24474;48.906;8.808;2022-07-24T00:03:58;21.70;99.90
38726;DHT22;24474;48.906;8.808;2022-07-24T00:06:25;21.60;99.90
38726;DHT22;24474;48.906;8.808;2022-07-24T00:08:51;21.60;99.90
38726;DHT22;24474;48.906;8.808;2022-07-24T00:11:17;21.60;99.90
38726;DHT22;24474;48.906;8.808;2022-07-24T00:13:43;21.60;99.90
38726;DHT22;24474;48.906;8.808;2022-07-24T00:16:09;21.60;99.90
38726;DHT22;24474;48.906;8.808;2022-07-24T00:18:36;21.60;99.90
38726;DHT22;24474;48.906;8.808;2022-07-24T00:21:02;21.60;99.90
38726;DHT22;24474;48.906;8.808;2022-07-24T00:23:28;21.50;99.90
38726;DHT22;24474;48.906;8.808;2022-07-24T00:25:54;21.50;99.90
38726;DHT22;24474;48.906;8.808;2022-07-24T00:28:23;21.50;99.90
38726;DHT22;24474;48.906;8.808;2022-07-24T00:34:11;21.40;99.90
38726;DHT22;24474;48.906;8.808;2022-07-24T00:36:37;21.40;99.90
38726;DHT22;24474;48.906;8.808;2022-07-24T00:39:03;21.40;99.90
38726;DHT22;24474;48.906;8.808;2022-07-24T00:41:29;21.40;99.90
38726;DHT22;24474;48.906;8.808;2022-07-24T00:46:28;21.30;99.90
38726;DHT22;24474;48.906;8.808;2022-07-24T00:48:54;21.30;99.90
38726;DHT22;24474;48.906;8.808;2022-07-24T00:51:20;21.30;99.90
38726;DHT22;24474;48.906;8.808;2022-07-24T00:53:47;21.30;99.90
38726;DHT22;24474;48.906;8.808;2022-07-24T00:56:13;21.20;99.90
38726;DHT22;24474;48.906;8.808;2022-07-24T00:58:40;21.20;99.90
38726;DHT22;24474;48.906;8.808;2022-07-24T01:01:07;21.20;99.90
38726;DHT22;24474;48.906;8.808;2022-07-24T01:03:33;21.20;99.90
38726;DHT22;24474;48.906;8.808;2022-07-24T01:05:58;21.20;99.90
38726;DHT22;24474;48.906;8.808;2022-07-24T01:08:24;21.10;99.90
38726;DHT22;24474;48.906;8.808;2022-07-24T01:10:52;21.10;99.90
38726;DHT22;24474;48.906;8.808;2022-07-24T01:13:19;21.10;99.90
38726;DHT22;24474;48.906;8.808;2022-07-24T01:15:47;21.00;99.90
38726;DHT22;24474;48.906;8.808;2022-07-24T01:18:13;21.00;99.90
38726;DHT22;24474;48.906;8.808;2022-07-24T01:20:39;21.00;99.90
38726;DHT22;24474;48.906;8.808;2022-07-24T01:23:05;20.90;99.90
38726;DHT22;24474;48.906;8.808;2022-07-24T01:25:31;21.00;99.90
38726;DHT22;24474;48.906;8.808;2022-07-24T01:27:57;20.90;99.90
38726;DHT22;24474;48.906;8.808;2022-07-24T01:30:24;20.90;99.90
38726;DHT22;24474;48.906;8.808;2022-07-24T01:32:49;20.80;99.90
38726;DHT22;24474;48.906;8.808;2022-07-24T01:35:17;20.80;99.90
38726;DHT22;24474;48.906;8.808;2022-07-24T01:37:42;20.80;99.90
38726;DHT22;24474;48.906;8.808;2022-07-24T01:40:10;20.70;99.90
38726;DHT22;24474;48.906;8.808;2022-07-24T01:42:36;20.70;99.90
38726;DHT22;24474;48.906;8.808;2022-07-24T01:45:02;20.70;99.90
38726;DHT22;24474;48.906;8.808;2022-07-24T01:47:27;20.60;99.90
38726;DHT22;24474;48.906;8.808;2022-07-24T01:49:55;20.60;99.90
38726;DHT22;24474;48.906;8.808;2022-07-24T01:52:21;20.50;99.90
38726;DHT22;24474;48.906;8.808;2022-07-24T01:54:51;20.50;99.90
38726;DHT22;24474;48.906;8.808;2022-07-24T01:57:19;20.50;99.90
38726;DHT22;24474;48.906;8.808;2022-07-24T01:59:46;20.50;99.90
38726;DHT22;24474;48.906;8.808;2022-07-24T02:02:11;20.40;99.90
38726;DHT22;24474;48.906;8.808;2022-07-24T02:04:38;20.40;99.90
38726;DHT22;24474;48.906;8.808;2022-07-24T02:07:04;20.40;99.90
38726;DHT22;24474;48.906;8.808;2022-07-24T02:09:30;20.40;99.90
38726;DHT22;24474;48.906;8.808;2022-07-24T02:11:56;20.40;99.90
38726;DHT22;24474;48.906;8.808;2022-07-24T02:14:23;20.30;99.90
38726;DHT22;24474;48.906;8.808;2022-07-24T02:16:48;20.30;99.90
38726;DHT22;24474;48.906;8.808;2022-07-24T02:19:14;20.20;99.90
38726;DHT22;24474;48.906;8.808;2022-07-24T02:21:40;20.20;99.90
38726;DHT22;24474;48.906;8.808;2022-07-24T02:24:06;20.20;99.90
38726;DHT22;24474;48.906;8.808;2022-07-24T02:26:32;20.20;99.90
38726;DHT22;24474;48.906;8.808;2022-07-24T02:28:57;20.10;99.90
38726;DHT22;24474;48.906;8.808;2022-07-24T02:31:24;20.00;99.90
38726;DHT22;24474;48.906;8.808;2022-07-24T02:33:50;20.00;99.90
38726;DHT22;24474;48.906;8.808;2022-07-24T02:36:15;19.90;99.90
38726;DHT22;24474;48.906;8.808;2022-07-24T02:38:41;19.90;99.90
38726;DHT22;24474;48.906;8.808;2022-07-24T02:41:08;19.90;99.90
38726;DHT22;24474;48.906;8.808;2022-07-24T02:43:34;19.90;99.90
38726;DHT22;24474;48.906;8.808;2022-07-24T02:46:00;19.80;99.90
38726;DHT22;24474;48.906;8.808;2022-07-24T02:48:26;19.80;99.90
38726;DHT22;24474;48.906;8.808;2022-07-24T02:50:53;19.70;99.90
38726;DHT22;24474;48.906;8.808;2022-07-24T02:53:18;19.70;99.90
38726;DHT22;24474;48.906;8.808;2022-07-24T02:55:44;19.70;99.90
38726;DHT22;24474;48.906;8.808;2022-07-24T02:58:10;19.60;99.90
38726;DHT22;24474;48.906;8.808;2022-07-24T03:00:35;19.60;99.90
38726;DHT22;24474;48.906;8.808;2022-07-24T03:03:02;19.50;99.90
38726;DHT22;24474;48.906;8.808;2022-07-24T03:05:28;19.60;99.90
38726;DHT22;24474;48.906;8.808;2022-07-24T03:07:54;19.50;99.90
38726;DHT22;24474;48.906;8.808;2022-07-24T03:10:22;19.50;99.90
38726;DHT22;24474;48.906;8.808;2022-07-24T03:12:48;19.50;99.90
38726;DHT22;24474;48.906;8.808;2022-07-24T03:15:14;19.40;99.90
38726;DHT22;24474;48.906;8.808;2022-07-24T03:17:48;19.40;99.90
38726;DHT22;24474;48.906;8.808;2022-07-24T03:20:15;19.30;99.90
38726;DHT22;24474;48.906;8.808;2022-07-24T03:22:41;19.30;99.90
38726;DHT22;24474;48.906;8.808;2022-07-24T03:25:08;19.30;99.90
38726;DHT22;24474;48.906;8.808;2022-07-24T03:27:34;19.20;99.90
38726;DHT22;24474;48.906;8.808;2022-07-24T03:29:59;19.20;99.90
38726;DHT22;24474;48.906;8.808;2022-07-24T03:32:25;19.20;99.90
38726;DHT22;24474;48.906;8.808;2022-07-24T03:34:52;19.20;99.90
38726;DHT22;24474;48.906;8.808;2022-07-24T03:37:19;19.10;99.90
38726;DHT22;24474;48.906;8.808;2022-07-24T03:39:46;19.10;99.90
38726;DHT22;24474;48.906;8.808;2022-07-24T03:42:12;19.10;99.90
38726;DHT22;24474;48.906;8.808;2022-07-24T03:44:37;19.00;99.90
38726;DHT22;24474;48.906;8.808;2022-07-24T03:47:04;19.10;99.90
38726;DHT22;24474;48.906;8.808;2022-07-24T03:49:31;19.10;99.90
38726;DHT22;24474;48.906;8.808;2022-07-24T03:51:57;19.10;99.90
38726;DHT22;24474;48.906;8.808;2022-07-24T03:54:22;19.00;99.90
38726;DHT22;24474;48.906;8.808;2022-07-24T03:56:50;18.90;99.90
38726;DHT22;24474;48.906;8.808;2022-07-24T03:59:15;18.90;99.90
38726;DHT22;24474;48.906;8.808;2022-07-24T04:01:41;18.90;99.90
38726;DHT22;24474;48.906;8.808;2022-07-24T04:04:14;18.90;99.90
38726;DHT22;24474;48.906;8.808;2022-07-24T04:06:40;18.80;99.90
38726;DHT22;24474;48.906;8.808;2022-07-24T04:09:09;18.80;99.90
38726;DHT22;24474;48.906;8.808;2022-07-24T04:11:36;18.80;99.90
38726;DHT22;24474;48.906;8.808;2022-07-24T04:14:01;18.80;99.90
38726;DHT22;24474;48.906;8.808;2022-07-24T04:16:29;18.80;99.90
38726;DHT22;24474;48.906;8.808;2022-07-24T04:18:54;18.80;99.90
38726;DHT22;24474;48.906;8.808;2022-07-24T04:21:20;18.90;99.90
38726;DHT22;24474;48.906;8.808;2022-07-24T04:23:47;18.90;99.90
38726;DHT22;24474;48.906;8.808;2022-07-24T04:26:13;18.90;99.90
38726;DHT22;24474;48.906;8.808;2022-07-24T04:28:38;18.90;99.90
38726;DHT22;24474;48.906;8.808;2022-07-24T04:31:04;18.90;99.90
38726;DHT22;24474;48.906;8.808;2022-07-24T04:33:30;18.90;99.90
38726;DHT22;24474;48.906;8.808;2022-07-24T04:35:56;18.90;99.90
38726;DHT22;24474;48.906;8.808;2022-07-24T04:38:22;18.80;99.90
38726;DHT22;24474;48.906;8.808;2022-07-24T04:40:49;18.90;99.90
38726;DHT22;24474;48.906;8.808;2022-07-24T04:43:14;18.90;99.90
38726;DHT22;24474;48.906;8.808;2022-07-24T04:45:40;18.90;99.90
38726;DHT22;24474;48.906;8.808;2022-07-24T04:48:06;18.90;99.90
38726;DHT22;24474;48.906;8.808;2022-07-24T04:50:31;18.90;99.90
38726;DHT22;24474;48.906;8.808;2022-07-24T04:52:58;18.90;99.90
38726;DHT22;24474;48.906;8.808;2022-07-24T04:55:25;18.90;99.90
38726;DHT22;24474;48.906;8.808;2022-07-24T04:57:52;19.00;99.90
38726;DHT22;24474;48.906;8.808;2022-07-24T05:00:18;19.10;99.90
38726;DHT22;24474;48.906;8.808;2022-07-24T05:02:43;19.10;99.90
38726;DHT22;24474;48.906;8.808;2022-07-24T05:05:09;19.20;99.90
38726;DHT22;24474;48.906;8.808;2022-07-24T05:07:36;19.30;99.90
38726;DHT22;24474;48.906;8.808;2022-07-24T05:10:04;19.30;99.90
38726;DHT22;24474;48.906;8.808;2022-07-24T05:12:29;19.50;99.90
38726;DHT22;24474;48.906;8.808;2022-07-24T05:14:55;19.50;99.90
38726;DHT22;24474;48.906;8.808;2022-07-24T05:17:21;19.60;99.90
38726;DHT22;24474;48.906;8.808;2022-07-24T05:19:47;19.60;99.90
38726;DHT22;24474;48.906;8.808;2022-07-24T05:22:13;19.60;99.90
38726;DHT22;24474;48.906;8.808;2022-07-24T05:24:38;19.60;99.90
38726;DHT22;24474;48.906;8.808;2022-07-24T05:27:04;19.70;99.90
38726;DHT22;24474;48.906;8.808;2022-07-24T05:29:31;19.70;99.90
38726;DHT22;24474;48.906;8.808;2022-07-24T05:31:57;19.80;99.90
38726;DHT22;24474;48.906;8.808;2022-07-24T05:34:23;19.90;99.90
38726;DHT22;24474;48.906;8.808;2022-07-24T05:36:49;19.90;99.90
38726;DHT22;24474;48.906;8.808;2022-07-24T05:39:22;20.00;99.90
38726;DHT22;24474;48.906;8.808;2022-07-24T05:41:47;20.10;99.90
38726;DHT22;24474;48.906;8.808;2022-07-24T05:44:13;20.30;99.90
38726;DHT22;24474;48.906;8.808;2022-07-24T05:46:40;21.10;99.90
38726;DHT22;24474;48.906;8.808;2022-07-24T05:49:06;22.30;99.90
38726;DHT22;24474;48.906;8.808;2022-07-24T05:51:31;23.30;99.90
38726;DHT22;24474;48.906;8.808;2022-07-24T05:53:58;24.50;99.40
38726;DHT22;24474;48.906;8.808;2022-07-24T05:56:25;25.20;97.70
38726;DHT22;24474;48.906;8.808;2022-07-24T05:58:51;25.80;96.70
38726;DHT22;24474;48.906;8.808;2022-07-24T06:01:17;26.40;95.90
38726;DHT22;24474;48.906;8.808;2022-07-24T06:03:44;26.70;95.00
38726;DHT22;24474;48.906;8.808;2022-07-24T06:06:10;26.90;94.40
38726;DHT22;24474;48.906;8.808;2022-07-24T06:08:36;26.60;94.20
38726;DHT22;24474;48.906;8.808;2022-07-24T06:11:02;26.20;93.50
38726;DHT22;24474;48.906;8.808;2022-07-24T06:13:29;25.20;94.20
38726;DHT22;24474;48.906;8.808;2022-07-24T06:15:55;24.30;95.80
38726;DHT22;24474;48.906;8.808;2022-07-24T06:18:22;23.80;96.90
38726;DHT22;24474;48.906;8.808;2022-07-24T06:20:48;23.70;96.90
38726;DHT22;24474;48.906;8.808;2022-07-24T06:23:14;23.30;97.20
38726;DHT22;24474;48.906;8.808;2022-07-24T06:25:41;23.00;97.40
38726;DHT22;24474;48.906;8.808;2022-07-24T06:28:06;22.80;98.10
38726;DHT22;24474;48.906;8.808;2022-07-24T06:30:33;22.70;98.40
38726;DHT22;24474;48.906;8.808;2022-07-24T06:33:00;22.60;98.60
38726;DHT22;24474;48.906;8.808;2022-07-24T06:35:27;22.50;98.60
38726;DHT22;24474;48.906;8.808;2022-07-24T06:37:53;22.40;99.10
38726;DHT22;24474;48.906;8.808;2022-07-24T06:40:20;22.30;99.30
38726;DHT22;24474;48.906;8.808;2022-07-24T06:42:47;22.30;99.50
38726;DHT22;24474;48.906;8.808;2022-07-24T06:45:14;22.40;99.60
38726;DHT22;24474;48.906;8.808;2022-07-24T06:47:40;22.40;99.90
38726;DHT22;24474;48.906;8.808;2022-07-24T06:50:07;22.40;99.50
38726;DHT22;24474;48.906;8.808;2022-07-24T06:52:33;22.40;99.40
38726;DHT22;24474;48.906;8.808;2022-07-24T06:54:58;22.40;99.70
38726;DHT22;24474;48.906;8.808;2022-07-24T06:57:24;22.40;99.70
38726;DHT22;24474;48.906;8.808;2022-07-24T06:59:55;22.40;99.90
38726;DHT22;24474;48.906;8.808;2022-07-24T07:02:22;22.50;99.30
38726;DHT22;24474;48.906;8.808;2022-07-24T07:04:48;22.50;99.40
38726;DHT22;24474;48.906;8.808;2022-07-24T07:07:14;22.50;98.80
38726;DHT22;24474;48.906;8.808;2022-07-24T07:09:41;22.50;98.80
38726;DHT22;24474;48.906;8.808;2022-07-24T07:12:07;22.60;98.70
38726;DHT22;24474;48.906;8.808;2022-07-24T07:14:33;22.60;99.10
38726;DHT22;24474;48.906;8.808;2022-07-24T07:17:00;22.70;98.00
38726;DHT22;24474;48.906;8.808;2022-07-24T07:19:26;22.80;98.00
38726;DHT22;24474;48.906;8.808;2022-07-24T07:21:52;22.90;99.90
38726;DHT22;24474;48.906;8.808;2022-07-24T07:24:18;22.90;99.20
38726;DHT22;24474;48.906;8.808;2022-07-24T07:26:45;22.90;99.80
38726;DHT22;24474;48.906;8.808;2022-07-24T07:29:11;22.90;99.70
38726;DHT22;24474;48.906;8.808;2022-07-24T07:31:37;22.90;99.60
38726;DHT22;24474;48.906;8.808;2022-07-24T07:34:02;22.90;97.90
38726;DHT22;24474;48.906;8.808;2022-07-24T07:36:29;23.00;96.50
38726;DHT22;24474;48.906;8.808;2022-07-24T07:38:55;23.00;97.20
38726;DHT22;24474;48.906;8.808;2022-07-24T07:41:23;23.00;97.90
38726;DHT22;24474;48.906;8.808;2022-07-24T07:43:49;23.10;98.50
38726;DHT22;24474;48.906;8.808;2022-07-24T07:46:14;23.10;98.20
38726;DHT22;24474;48.906;8.808;2022-07-24T07:48:42;23.20;98.90
38726;DHT22;24474;48.906;8.808;2022-07-24T07:51:08;23.30;98.10
38726;DHT22;24474;48.906;8.808;2022-07-24T07:53:34;23.30;98.50
38726;DHT22;24474;48.906;8.808;2022-07-24T07:55:59;23.30;98.60
38726;DHT22;24474;48.906;8.808;2022-07-24T07:58:27;23.40;98.60
38726;DHT22;24474;48.906;8.808;2022-07-24T08:01:06;23.50;98.60
38726;DHT22;24474;48.906;8.808;2022-07-24T08:03:32;23.50;97.80
38726;DHT22;24474;48.906;8.808;2022-07-24T08:05:59;23.50;98.20
38726;DHT22;24474;48.906;8.808;2022-07-24T08:08:26;23.50;98.10
38726;DHT22;24474;48.906;8.808;2022-07-24T08:10:54;23.60;97.90
38726;DHT22;24474;48.906;8.808;2022-07-24T08:13:20;23.60;97.30
38726;DHT22;24474;48.906;8.808;2022-07-24T08:15:46;23.60;97.50
38726;DHT22;24474;48.906;8.808;2022-07-24T08:18:14;23.70;97.80
38726;DHT22;24474;48.906;8.808;2022-07-24T08:20:40;23.70;97.50
38726;DHT22;24474;48.906;8.808;2022-07-24T08:23:09;23.80;96.50
38726;DHT22;24474;48.906;8.808;2022-07-24T08:25:36;23.80;97.10
38726;DHT22;24474;48.906;8.808;2022-07-24T08:28:02;23.80;96.50
38726;DHT22;24474;48.906;8.808;2022-07-24T08:30:29;23.80;96.90
38726;DHT22;24474;48.906;8.808;2022-07-24T08:32:55;23.80;96.90
38726;DHT22;24474;48.906;8.808;2022-07-24T08:35:21;23.90;96.60
38726;DHT22;24474;48.906;8.808;2022-07-24T08:37:53;24.00;97.20
38726;DHT22;24474;48.906;8.808;2022-07-24T08:40:22;24.00;96.90
38726;DHT22;24474;48.906;8.808;2022-07-24T08:42:48;24.10;96.30
38726;DHT22;24474;48.906;8.808;2022-07-24T08:45:13;24.10;95.70
38726;DHT22;24474;48.906;8.808;2022-07-24T08:47:44;24.10;95.70
38726;DHT22;24474;48.906;8.808;2022-07-24T08:50:10;24.10;96.00
38726;DHT22;24474;48.906;8.808;2022-07-24T08:52:37;24.10;95.90
38726;DHT22;24474;48.906;8.808;2022-07-24T08:55:05;24.30;95.30
38726;DHT22;24474;48.906;8.808;2022-07-24T08:57:32;24.40;93.50
38726;DHT22;24474;48.906;8.808;2022-07-24T08:59:57;24.40;93.80
38726;DHT22;24474;48.906;8.808;2022-07-24T09:02:26;24.40;94.90
38726;DHT22;24474;48.906;8.808;2022-07-24T09:05:10;24.40;94.90
38726;DHT22;24474;48.906;8.808;2022-07-24T09:07:36;24.50;94.50
38726;DHT22;24474;48.906;8.808;2022-07-24T09:10:08;24.60;94.20
38726;DHT22;24474;48.906;8.808;2022-07-24T09:12:36;24.60;94.10
38726;DHT22;24474;48.906;8.808;2022-07-24T09:15:12;24.70;93.90
38726;DHT22;24474;48.906;8.808;2022-07-24T09:17:56;24.70;93.90
38726;DHT22;24474;48.906;8.808;2022-07-24T09:20:26;24.80;94.60
38726;DHT22;24474;48.906;8.808;2022-07-24T09:22:57;24.80;94.60
38726;DHT22;24474;48.906;8.808;2022-07-24T09:25:26;25.00;94.70
38726;DHT22;24474;48.906;8.808;2022-07-24T09:28:12;25.00;93.80
38726;DHT22;24474;48.906;8.808;2022-07-24T09:30:42;25.10;93.20
38726;DHT22;24474;48.906;8.808;2022-07-24T09:33:16;25.10;92.70
38726;DHT22;24474;48.906;8.808;2022-07-24T09:35:52;25.20;93.40
38726;DHT22;24474;48.906;8.808;2022-07-24T09:38:21;25.20;92.70
38726;DHT22;24474;48.906;8.808;2022-07-24T09:40:57;25.20;92.90
38726;DHT22;24474;48.906;8.808;2022-07-24T09:43:29;25.30;92.20
38726;DHT22;24474;48.906;8.808;2022-07-24T09:48:31;25.40;90.90
38726;DHT22;24474;48.906;8.808;2022-07-24T09:51:20;25.40;90.70
38726;DHT22;24474;48.906;8.808;2022-07-24T09:53:53;25.40;91.60
38726;DHT22;24474;48.906;8.808;2022-07-24T09:56:20;25.40;92.30
38726;DHT22;24474;48.906;8.808;2022-07-24T10:01:13;25.50;91.50
38726;DHT22;24474;48.906;8.808;2022-07-24T10:03:40;25.60;91.30
38726;DHT22;24474;48.906;8.808;2022-07-24T10:06:09;25.70;91.40
38726;DHT22;24474;48.906;8.808;2022-07-24T10:08:43;25.70;91.20
38726;DHT22;24474;48.906;8.808;2022-07-24T10:11:11;25.80;91.20
38726;DHT22;24474;48.906;8.808;2022-07-24T10:13:37;25.80;90.40
38726;DHT22;24474;48.906;8.808;2022-07-24T10:18:48;25.90;90.10
38726;DHT22;24474;48.906;8.808;2022-07-24T10:21:23;25.90;90.30
38726;DHT22;24474;48.906;8.808;2022-07-24T10:26:39;26.00;91.00
38726;DHT22;24474;48.906;8.808;2022-07-24T10:29:33;26.00;90.60
38726;DHT22;24474;48.906;8.808;2022-07-24T10:31:59;26.00;90.30
38726;DHT22;24474;48.906;8.808;2022-07-24T10:34:46;26.10;90.60
38726;DHT22;24474;48.906;8.808;2022-07-24T10:40:36;26.30;88.90
38726;DHT22;24474;48.906;8.808;2022-07-24T10:43:09;26.30;90.20
38726;DHT22;24474;48.906;8.808;2022-07-24T10:48:35;26.10;89.60
38726;DHT22;24474;48.906;8.808;2022-07-24T10:51:13;26.20;90.30
38726;DHT22;24474;48.906;8.808;2022-07-24T10:53:51;26.30;90.10
38726;DHT22;24474;48.906;8.808;2022-07-24T10:59:10;26.50;90.00
38726;DHT22;24474;48.906;8.808;2022-07-24T11:09:59;26.90;89.00
38726;DHT22;24474;48.906;8.808;2022-07-24T11:12:27;27.00;87.30
38726;DHT22;24474;48.906;8.808;2022-07-24T11:15:01;27.00;89.40
38726;DHT22;24474;48.906;8.808;2022-07-24T11:17:46;26.90;88.60
38726;DHT22;24474;48.906;8.808;2022-07-24T11:20:19;27.00;88.70
38726;DHT22;24474;48.906;8.808;2022-07-24T11:22:55;27.10;89.10
38726;DHT22;24474;48.906;8.808;2022-07-24T11:25:28;27.10;90.20
38726;DHT22;24474;48.906;8.808;2022-07-24T11:28:13;27.20;88.30
38726;DHT22;24474;48.906;8.808;2022-07-24T11:30:45;27.20;87.80
38726;DHT22;24474;48.906;8.808;2022-07-24T11:33:19;27.30;88.30
38726;DHT22;24474;48.906;8.808;2022-07-24T11:35:46;27.30;88.30
38726;DHT22;24474;48.906;8.808;2022-07-24T11:38:14;27.30;88.50
38726;DHT22;24474;48.906;8.808;2022-07-24T11:40:40;27.40;87.60
38726;DHT22;24474;48.906;8.808;2022-07-24T11:43:06;27.40;88.30
38726;DHT22;24474;48.906;8.808;2022-07-24T11:45:51;27.40;88.20
38726;DHT22;24474;48.906;8.808;2022-07-24T11:48:19;27.40;87.10
38726;DHT22;24474;48.906;8.808;2022-07-24T11:50:45;27.40;87.80
38726;DHT22;24474;48.906;8.808;2022-07-24T11:53:11;27.30;88.90
38726;DHT22;24474;48.906;8.808;2022-07-24T11:55:37;27.40;87.30
38726;DHT22;24474;48.906;8.808;2022-07-24T11:58:03;27.40;87.50
38726;DHT22;24474;48.906;8.808;2022-07-24T12:00:33;27.50;87.90
38726;DHT22;24474;48.906;8.808;2022-07-24T12:02:59;27.50;87.50
38726;DHT22;24474;48.906;8.808;2022-07-24T12:05:36;27.50;86.30
38726;DHT22;24474;48.906;8.808;2022-07-24T12:08:21;27.50;86.90
38726;DHT22;24474;48.906;8.808;2022-07-24T12:10:47;27.40;87.00
38726;DHT22;24474;48.906;8.808;2022-07-24T12:13:14;27.40;86.80
38726;DHT22;24474;48.906;8.808;2022-07-24T12:15:42;27.30;86.60
38726;DHT22;24474;48.906;8.808;2022-07-24T12:18:09;27.30;87.30
38726;DHT22;24474;48.906;8.808;2022-07-24T12:20:39;27.30;86.90
38726;DHT22;24474;48.906;8.808;2022-07-24T12:23:10;27.30;88.00
38726;DHT22;24474;48.906;8.808;2022-07-24T12:25:37;27.40;85.50
38726;DHT22;24474;48.906;8.808;2022-07-24T12:28:10;27.40;86.30
38726;DHT22;24474;48.906;8.808;2022-07-24T12:33:05;27.50;86.40
38726;DHT22;24474;48.906;8.808;2022-07-24T12:35:50;27.50;85.90
38726;DHT22;24474;48.906;8.808;2022-07-24T12:38:54;27.50;85.90
38726;DHT22;24474;48.906;8.808;2022-07-24T12:41:24;27.50;85.60
38726;DHT22;24474;48.906;8.808;2022-07-24T12:43:52;27.50;86.50
38726;DHT22;24474;48.906;8.808;2022-07-24T12:46:30;27.60;85.60
38726;DHT22;24474;48.906;8.808;2022-07-24T12:49:10;27.70;85.00
38726;DHT22;24474;48.906;8.808;2022-07-24T12:51:58;27.80;85.20
38726;DHT22;24474;48.906;8.808;2022-07-24T12:54:46;28.00;84.90
38726;DHT22;24474;48.906;8.808;2022-07-24T12:57:13;28.00;84.20
38726;DHT22;24474;48.906;8.808;2022-07-24T12:59:41;28.00;83.50
38726;DHT22;24474;48.906;8.808;2022-07-24T13:02:17;28.00;84.00
38726;DHT22;24474;48.906;8.808;2022-07-24T13:04:49;28.00;84.10
38726;DHT22;24474;48.906;8.808;2022-07-24T13:07:20;28.10;84.80
38726;DHT22;24474;48.906;8.808;2022-07-24T13:09:48;28.10;83.10
38726;DHT22;24474;48.906;8.808;2022-07-24T13:12:15;28.20;83.70
38726;DHT22;24474;48.906;8.808;2022-07-24T13:14:44;28.30;84.30
38726;DHT22;24474;48.906;8.808;2022-07-24T13:17:15;28.30;84.60
38726;DHT22;24474;48.906;8.808;2022-07-24T13:19:47;28.30;82.80
38726;DHT22;24474;48.906;8.808;2022-07-24T13:22:13;28.30;83.60
38726;DHT22;24474;48.906;8.808;2022-07-24T13:24:39;28.30;84.30
38726;DHT22;24474;48.906;8.808;2022-07-24T13:27:07;28.30;83.70
38726;DHT22;24474;48.906;8.808;2022-07-24T13:29:33;28.30;84.50
38726;DHT22;24474;48.906;8.808;2022-07-24T13:32:03;28.30;84.70
38726;DHT22;24474;48.906;8.808;2022-07-24T13:34:29;28.30;83.10
38726;DHT22;24474;48.906;8.808;2022-07-24T13:36:55;28.30;83.60
38726;DHT22;24474;48.906;8.808;2022-07-24T13:39:21;28.40;83.90
38726;DHT22;24474;48.906;8.808;2022-07-24T13:41:47;28.40;83.00
38726;DHT22;24474;48.906;8.808;2022-07-24T13:44:12;28.50;83.50
38726;DHT22;24474;48.906;8.808;2022-07-24T13:46:38;28.50;82.40
38726;DHT22;24474;48.906;8.808;2022-07-24T13:49:05;28.50;82.90
38726;DHT22;24474;48.906;8.808;2022-07-24T13:51:33;28.50;82.50
38726;DHT22;24474;48.906;8.808;2022-07-24T13:53:58;28.50;83.10
38726;DHT22;24474;48.906;8.808;2022-07-24T13:56:26;28.50;82.00
38726;DHT22;24474;48.906;8.808;2022-07-24T13:58:52;28.50;82.10
38726;DHT22;24474;48.906;8.808;2022-07-24T14:01:18;28.50;82.90
38726;DHT22;24474;48.906;8.808;2022-07-24T14:03:45;28.60;83.10
38726;DHT22;24474;48.906;8.808;2022-07-24T14:06:11;28.70;82.40
38726;DHT22;24474;48.906;8.808;2022-07-24T14:08:38;28.70;82.40
38726;DHT22;24474;48.906;8.808;2022-07-24T14:11:05;28.70;81.90
38726;DHT22;24474;48.906;8.808;2022-07-24T14:13:31;28.70;81.20
38726;DHT22;24474;48.906;8.808;2022-07-24T14:15:58;28.70;83.00
38726;DHT22;24474;48.906;8.808;2022-07-24T14:18:24;28.70;82.50
38726;DHT22;24474;48.906;8.808;2022-07-24T14:20:50;28.80;82.10
38726;DHT22;24474;48.906;8.808;2022-07-24T14:23:16;28.80;81.00
38726;DHT22;24474;48.906;8.808;2022-07-24T14:25:43;28.80;81.70
38726;DHT22;24474;48.906;8.808;2022-07-24T14:28:10;28.80;81.10
38726;DHT22;24474;48.906;8.808;2022-07-24T14:30:36;28.90;81.40
38726;DHT22;24474;48.906;8.808;2022-07-24T14:33:01;28.90;80.80
38726;DHT22;24474;48.906;8.808;2022-07-24T14:35:27;28.90;81.60
38726;DHT22;24474;48.906;8.808;2022-07-24T14:37:54;28.90;81.70
38726;DHT22;24474;48.906;8.808;2022-07-24T14:40:20;29.00;80.20
38726;DHT22;24474;48.906;8.808;2022-07-24T14:42:46;29.00;81.00
38726;DHT22;24474;48.906;8.808;2022-07-24T14:45:12;29.00;81.40
38726;DHT22;24474;48.906;8.808;2022-07-24T14:47:38;29.10;81.50
38726;DHT22;24474;48.906;8.808;2022-07-24T14:50:09;29.00;80.80
38726;DHT22;24474;48.906;8.808;2022-07-24T14:52:36;29.10;80.60
38726;DHT22;24474;48.906;8.808;2022-07-24T14:55:02;29.10;81.20
38726;DHT22;24474;48.906;8.808;2022-07-24T14:57:28;29.10;81.10
38726;DHT22;24474;48.906;8.808;2022-07-24T14:59:54;29.10;80.00
38726;DHT22;24474;48.906;8.808;2022-07-24T15:02:19;29.20;80.70
38726;DHT22;24474;48.906;8.808;2022-07-24T15:04:45;29.20;80.40
38726;DHT22;24474;48.906;8.808;2022-07-24T15:07:11;29.30;80.20
38726;DHT22;24474;48.906;8.808;2022-07-24T15:09:36;29.30;78.90
38726;DHT22;24474;48.906;8.808;2022-07-24T15:12:02;29.30;78.40
38726;DHT22;24474;48.906;8.808;2022-07-24T15:14:28;29.30;80.50
38726;DHT22;24474;48.906;8.808;2022-07-24T15:16:54;29.40;79.30
38726;DHT22;24474;48.906;8.808;2022-07-24T15:19:19;29.30;79.20
38726;DHT22;24474;48.906;8.808;2022-07-24T15:21:45;29.40;78.80
38726;DHT22;24474;48.906;8.808;2022-07-24T15:24:10;29.40;79.30
38726;DHT22;24474;48.906;8.808;2022-07-24T15:26:39;29.40;79.20
38726;DHT22;24474;48.906;8.808;2022-07-24T15:29:05;29.40;79.00
38726;DHT22;24474;48.906;8.808;2022-07-24T15:31:32;29.40;79.10
38726;DHT22;24474;48.906;8.808;2022-07-24T15:33:57;29.40;79.10
38726;DHT22;24474;48.906;8.808;2022-07-24T15:36:23;29.40;78.50
38726;DHT22;24474;48.906;8.808;2022-07-24T15:38:48;29.50;78.40
38726;DHT22;24474;48.906;8.808;2022-07-24T15:41:16;29.50;78.20
38726;DHT22;24474;48.906;8.808;2022-07-24T15:43:42;29.50;78.20
38726;DHT22;24474;48.906;8.808;2022-07-24T15:46:07;29.50;78.40
38726;DHT22;24474;48.906;8.808;2022-07-24T15:48:33;29.60;77.90
38726;DHT22;24474;48.906;8.808;2022-07-24T15:50:59;29.60;77.60
38726;DHT22;24474;48.906;8.808;2022-07-24T15:53:24;29.60;78.60
38726;DHT22;24474;48.906;8.808;2022-07-24T15:55:50;29.60;78.20
38726;DHT22;24474;48.906;8.808;2022-07-24T15:58:15;29.70;77.50
38726;DHT22;24474;48.906;8.808;2022-07-24T16:00:42;29.60;77.90
38726;DHT22;24474;48.906;8.808;2022-07-24T16:03:07;29.60;77.60
38726;DHT22;24474;48.906;8.808;2022-07-24T16:05:34;29.70;77.80
38726;DHT22;24474;48.906;8.808;2022-07-24T16:08:00;29.70;77.60
38726;DHT22;24474;48.906;8.808;2022-07-24T16:10:27;29.70;76.70